OITK  Khoy Airport

Add Bookmark

Khoy, Iran

Status IATA
Operational KHY
Latitude Longitude
38° 25' 39" N 44° 58' 24" E
38.427502 44.973598
Local (DST + 5) UTC (GMT + 4)
Oct 22, 2014 05:04 Oct 22, 2014 01:34
Sunrise-Sunset Local UTC
Begin Civil Twilight 06:18 02:48
Sunrise 06:44 03:14
Sunset 05:44 14:14
End Civil Twilight 06:11 14:41

Current Weather

METAR Observed VFR
OITK 211100Z 36004KT 9999 FEW020 SCT035 BKN080 09/04 Q1015 Tue, Oct 21, 2014 @ 11:00 UTC
(14 Hours, 34 Minutes ago)
Visual Flight Rules
Wind Visibility Clouds Conditions
360° at 4 knots (7 kph) 10 km or more
  • Few at 2,000' AGL
  • Scattered at 3,500' AGL
  • Broken at 8,000' AGL
  • No significant weather
Temperatures Readings Precipitation
Current Temp 9°C (48°F)
Dewpoint 4°C (39°F)
Humidity 71%
Altimeter 29.97"Hg
Sea Level Pressure 1015mb
Field Elevation 3631.89'
None Recorded

Additional weather within a 92.6km radius of OITK

Map ICAO Location
OITR 84.8km S (174°)

24 Hour Weather History

Loading
-

24 Hour Weather Graphs

Loading
-

CheckWX.com is intended as a tool to help pilots better visualize weather data. It is not intended as a substitute for an official weather briefing obtained from a Flight Service Station. CheckWX.com does not meet the FAA requirements for an official pre-flight weather briefing. Therefore, it's important that pilots still call and obtain an official FSS pre-flight weather briefing.